sensor_id;sensor_type;location;lat;lon;timestamp;pressure;altitude;pressure_sealevel;temperature;humidity
25560;BME280;13450;49.374;8.584;2023-04-19T00:01:01;101190.75;;;10.23;100.00
25560;BME280;13450;49.374;8.584;2023-04-19T00:03:27;101186.56;;;10.20;100.00
25560;BME280;13450;49.374;8.584;2023-04-19T00:05:54;101189.91;;;10.23;100.00
25560;BME280;13450;49.374;8.584;2023-04-19T00:08:25;101186.72;;;10.19;100.00
25560;BME280;13450;49.374;8.584;2023-04-19T00:10:50;101185.75;;;10.20;100.00
25560;BME280;13450;49.374;8.584;2023-04-19T00:13:16;101190.41;;;10.18;100.00
25560;BME280;13450;49.374;8.584;2023-04-19T00:15:45;101184.38;;;10.16;100.00
25560;BME280;13450;49.374;8.584;2023-04-19T00:18:11;101180.38;;;10.12;100.00
25560;BME280;13450;49.374;8.584;2023-04-19T00:20:37;101178.00;;;10.08;100.00
25560;BME280;13450;49.374;8.584;2023-04-19T00:23:03;101180.84;;;10.07;100.00
25560;BME280;13450;49.374;8.584;2023-04-19T00:25:30;101178.00;;;10.08;100.00
25560;BME280;13450;49.374;8.584;2023-04-19T00:27:58;101177.50;;;10.05;100.00
25560;BME280;13450;49.374;8.584;2023-04-19T00:30:24;101182.00;;;10.04;100.00
25560;BME280;13450;49.374;8.584;2023-04-19T00:32:49;101173.66;;;9.99;100.00
25560;BME280;13450;49.374;8.584;2023-04-19T00:35:14;101173.66;;;9.99;100.00
25560;BME280;13450;49.374;8.584;2023-04-19T00:37:40;101176.31;;;9.99;100.00
25560;BME280;13450;49.374;8.584;2023-04-19T00:40:06;101170.63;;;9.94;100.00
25560;BME280;13450;49.374;8.584;2023-04-19T00:42:31;101176.63;;;9.96;100.00
25560;BME280;13450;49.374;8.584;2023-04-19T00:44:56;101177.66;;;9.95;100.00
25560;BME280;13450;49.374;8.584;2023-04-19T00:47:22;101172.28;;;9.95;100.00
25560;BME280;13450;49.374;8.584;2023-04-19T00:49:47;101172.63;;;9.92;100.00
25560;BME280;13450;49.374;8.584;2023-04-19T00:52:12;101166.28;;;9.93;100.00
25560;BME280;13450;49.374;8.584;2023-04-19T00:54:38;101172.63;;;9.92;100.00
25560;BME280;13450;49.374;8.584;2023-04-19T00:57:06;101170.94;;;9.91;100.00
25560;BME280;13450;49.374;8.584;2023-04-19T00:59:33;101165.91;;;9.88;100.00
25560;BME280;13450;49.374;8.584;2023-04-19T01:02:00;101173.78;;;9.89;100.00
25560;BME280;13450;49.374;8.584;2023-04-19T01:04:25;101172.44;;;9.85;100.00
25560;BME280;13450;49.374;8.584;2023-04-19T01:06:51;101169.44;;;9.88;100.00
25560;BME280;13450;49.374;8.584;2023-04-19T01:09:18;101166.91;;;9.87;100.00
25560;BME280;13450;49.374;8.584;2023-04-19T01:11:46;101165.91;;;9.88;100.00
25560;BME280;13450;49.374;8.584;2023-04-19T01:14:11;101155.22;;;9.88;100.00
25560;BME280;13450;49.374;8.584;2023-04-19T01:16:39;101160.91;;;9.85;100.00
25560;BME280;13450;49.374;8.584;2023-04-19T01:19:05;101153.56;;;9.87;100.00
25560;BME280;13450;49.374;8.584;2023-04-19T01:21:30;101153.56;;;9.87;100.00
25560;BME280;13450;49.374;8.584;2023-04-19T01:23:56;101148.22;;;9.87;100.00
25560;BME280;13450;49.374;8.584;2023-04-19T01:26:24;101146.53;;;9.86;100.00
25560;BME280;13450;49.374;8.584;2023-04-19T01:28:50;101152.91;;;9.85;100.00
25560;BME280;13450;49.374;8.584;2023-04-19T01:31:15;101141.00;;;9.79;100.00
25560;BME280;13450;49.374;8.584;2023-04-19T01:33:41;101141.31;;;9.76;100.00
25560;BME280;13450;49.374;8.584;2023-04-19T01:36:06;101136.81;;;9.76;100.00
25560;BME280;13450;49.374;8.584;2023-04-19T01:38:32;101130.78;;;9.74;100.00
25560;BME280;13450;49.374;8.584;2023-04-19T01:41:01;101134.16;;;9.76;100.00
25560;BME280;13450;49.374;8.584;2023-04-19T01:43:26;101126.13;;;9.76;100.00
25560;BME280;13450;49.374;8.584;2023-04-19T01:45:51;101126.13;;;9.76;100.00
25560;BME280;13450;49.374;8.584;2023-04-19T01:48:17;101127.00;;;9.77;100.00
25560;BME280;13450;49.374;8.584;2023-04-19T01:50:42;101124.47;;;9.75;100.00
25560;BME280;13450;49.374;8.584;2023-04-19T01:53:10;101129.81;;;9.75;100.00
25560;BME280;13450;49.374;8.584;2023-04-19T01:55:35;101128.13;;;9.74;100.00
25560;BME280;13450;49.374;8.584;2023-04-19T01:58:03;101140.81;;;9.72;100.00
25560;BME280;13450;49.374;8.584;2023-04-19T02:00:28;101135.47;;;9.72;100.00
25560;BME280;13450;49.374;8.584;2023-04-19T02:02:53;101132.81;;;9.72;100.00
25560;BME280;13450;49.374;8.584;2023-04-19T02:05:19;101121.47;;;9.70;100.00
25560;BME280;13450;49.374;8.584;2023-04-19T02:07:44;101117.09;;;9.69;100.00
25560;BME280;13450;49.374;8.584;2023-04-19T02:10:10;101119.75;;;9.69;100.00
25560;BME280;13450;49.374;8.584;2023-04-19T02:12:39;101116.28;;;9.68;100.00
25560;BME280;13450;49.374;8.584;2023-04-19T02:15:07;101112.75;;;9.68;100.00
25560;BME280;13450;49.374;8.584;2023-04-19T02:17:32;101112.75;;;9.68;100.00
25560;BME280;13450;49.374;8.584;2023-04-19T02:19:57;101114.75;;;9.66;100.00
25560;BME280;13450;49.374;8.584;2023-04-19T02:22:22;101104.88;;;9.66;100.00
25560;BME280;13450;49.374;8.584;2023-04-19T02:24:51;101110.22;;;9.66;100.00
25560;BME280;13450;49.374;8.584;2023-04-19T02:27:17;101105.72;;;9.67;100.00
25560;BME280;13450;49.374;8.584;2023-04-19T02:29:42;101109.06;;;9.69;100.00
25560;BME280;13450;49.374;8.584;2023-04-19T02:32:08;101112.09;;;9.66;100.00
25560;BME280;13450;49.374;8.584;2023-04-19T02:34:36;101100.72;;;9.64;100.00
25560;BME280;13450;49.374;8.584;2023-04-19T02:37:01;101103.38;;;9.64;100.00
25560;BME280;13450;49.374;8.584;2023-04-19T02:39:27;101107.72;;;9.65;100.00
25560;BME280;13450;49.374;8.584;2023-04-19T02:41:53;101091.03;;;9.63;100.00
25560;BME280;13450;49.374;8.584;2023-04-19T02:44:18;101105.88;;;9.65;100.00
25560;BME280;13450;49.374;8.584;2023-04-19T02:46:50;101093.38;;;9.66;100.00
25560;BME280;13450;49.374;8.584;2023-04-19T02:49:19;101095.88;;;9.67;100.00
25560;BME280;13450;49.374;8.584;2023-04-19T02:51:45;101094.72;;;9.70;100.00
25560;BME280;13450;49.374;8.584;2023-04-19T02:54:11;101091.03;;;9.71;100.00
25560;BME280;13450;49.374;8.584;2023-04-19T02:56:36;101097.41;;;9.70;100.00
25560;BME280;13450;49.374;8.584;2023-04-19T02:59:05;101091.22;;;9.70;100.00
25560;BME280;13450;49.374;8.584;2023-04-19T03:01:31;101088.53;;;9.70;100.00
25560;BME280;13450;49.374;8.584;2023-04-19T03:03:56;101103.41;;;9.72;100.00
25560;BME280;13450;49.374;8.584;2023-04-19T03:06:22;101093.03;;;9.69;100.00
25560;BME280;13450;49.374;8.584;2023-04-19T03:08:47;101091.03;;;9.71;100.00
25560;BME280;13450;49.374;8.584;2023-04-19T03:11:14;101082.19;;;9.71;100.00
25560;BME280;13450;49.374;8.584;2023-04-19T03:13:40;101084.03;;;9.70;100.00
25560;BME280;13450;49.374;8.584;2023-04-19T03:16:06;101081.38;;;9.70;100.00
25560;BME280;13450;49.374;8.584;2023-04-19T03:18:32;101089.38;;;9.70;100.00
25560;BME280;13450;49.374;8.584;2023-04-19T03:21:03;101083.03;;;9.71;100.00
25560;BME280;13450;49.374;8.584;2023-04-19T03:23:28;101077.84;;;9.70;100.00
25560;BME280;13450;49.374;8.584;2023-04-19T03:25:53;101082.34;;;9.69;100.00
25560;BME280;13450;49.374;8.584;2023-04-19T03:28:19;101075.50;;;9.66;100.00
25560;BME280;13450;49.374;8.584;2023-04-19T03:30:44;101077.50;;;9.64;100.00
25560;BME280;13450;49.374;8.584;2023-04-19T03:33:10;101069.50;;;9.64;100.00
25560;BME280;13450;49.374;8.584;2023-04-19T03:38:19;101070.97;;;9.59;100.00
25560;BME280;13450;49.374;8.584;2023-04-19T03:40:44;101067.94;;;9.53;100.00
25560;BME280;13450;49.374;8.584;2023-04-19T03:43:11;101057.25;;;9.53;100.00
25560;BME280;13450;49.374;8.584;2023-04-19T03:45:39;101059.91;;;9.45;100.00
25560;BME280;13450;49.374;8.584;2023-04-19T03:48:05;101054.56;;;9.45;100.00
25560;BME280;13450;49.374;8.584;2023-04-19T03:50:30;101049.53;;;9.42;100.00
25560;BME280;13450;49.374;8.584;2023-04-19T03:52:56;101050.34;;;9.34;100.00
25560;BME280;13450;49.374;8.584;2023-04-19T03:55:21;101055.03;;;9.32;100.00
25560;BME280;13450;49.374;8.584;2023-04-19T03:57:47;101050.00;;;9.29;100.00
25560;BME280;13450;49.374;8.584;2023-04-19T04:00:15;101049.31;;;9.27;100.00
25560;BME280;13450;49.374;8.584;2023-04-19T04:02:40;101045.53;;;9.29;100.00
25560;BME280;13450;49.374;8.584;2023-04-19T04:05:08;101042.66;;;9.31;100.00
25560;BME280;13450;49.374;8.584;2023-04-19T04:07:36;101045.53;;;9.29;100.00
25560;BME280;13450;49.374;8.584;2023-04-19T04:10:01;101041.16;;;9.28;100.00
25560;BME280;13450;49.374;8.584;2023-04-19T04:12:29;101043.16;;;9.26;100.00
25560;BME280;13450;49.374;8.584;2023-04-19T04:14:54;101051.34;;;9.25;100.00
25560;BME280;13450;49.374;8.584;2023-04-19T04:17:19;101052.66;;;9.21;100.00
25560;BME280;13450;49.374;8.584;2023-04-19T04:19:45;101057.47;;;9.17;100.00
25560;BME280;13450;49.374;8.584;2023-04-19T04:22:10;101054.47;;;9.12;100.00
25560;BME280;13450;49.374;8.584;2023-04-19T04:24:39;101061.78;;;9.10;100.00
25560;BME280;13450;49.374;8.584;2023-04-19T04:27:10;101063.78;;;9.08;100.00
25560;BME280;13450;49.374;8.584;2023-04-19T04:29:36;101063.94;;;9.06;100.00
25560;BME280;13450;49.374;8.584;2023-04-19T04:32:05;101066.09;;;9.02;100.00
25560;BME280;13450;49.374;8.584;2023-04-19T04:34:33;101067.41;;;8.98;100.00
25560;BME280;13450;49.374;8.584;2023-04-19T04:36:58;101062.38;;;8.95;100.00
25560;BME280;13450;49.374;8.584;2023-04-19T04:39:23;101061.69;;;8.93;100.00
25560;BME280;13450;49.374;8.584;2023-04-19T04:41:49;101062.53;;;8.94;100.00
25560;BME280;13450;49.374;8.584;2023-04-19T04:44:16;101058.72;;;8.96;100.00
25560;BME280;13450;49.374;8.584;2023-04-19T04:46:43;101066.41;;;8.99;100.00
25560;BME280;13450;49.374;8.584;2023-04-19T04:49:08;101066.91;;;9.03;100.00
25560;BME280;13450;49.374;8.584;2023-04-19T04:51:34;101071.78;;;9.08;100.00
25560;BME280;13450;49.374;8.584;2023-04-19T04:54:02;101067.44;;;9.07;100.00
25560;BME280;13450;49.374;8.584;2023-04-19T04:56:29;101074.13;;;9.11;100.00
25560;BME280;13450;49.374;8.584;2023-04-19T04:58:55;101072.66;;;9.16;100.00
25560;BME280;13450;49.374;8.584;2023-04-19T05:01:21;101062.47;;;9.20;100.00
25560;BME280;13450;49.374;8.584;2023-04-19T05:03:48;101075.53;;;9.23;100.00
25560;BME280;13450;49.374;8.584;2023-04-19T05:06:13;101079.53;;;9.27;100.00
25560;BME280;13450;49.374;8.584;2023-04-19T05:08:39;101069.06;;;9.34;100.00
25560;BME280;13450;49.374;8.584;2023-04-19T05:11:04;101073.53;;;9.34;100.00
25560;BME280;13450;49.374;8.584;2023-04-19T05:13:32;101076.75;;;9.37;100.00
25560;BME280;13450;49.374;8.584;2023-04-19T05:15:57;101075.94;;;9.45;100.00
25560;BME280;13450;49.374;8.584;2023-04-19T05:18:23;101072.97;;;9.57;100.00
25560;BME280;13450;49.374;8.584;2023-04-19T05:20:51;101078.16;;;9.66;100.00
25560;BME280;13450;49.374;8.584;2023-04-19T05:23:18;101075.66;;;9.73;100.00
25560;BME280;13450;49.374;8.584;2023-04-19T05:25:44;101083.41;;;9.85;100.00
25560;BME280;13450;49.374;8.584;2023-04-19T05:28:09;101081.22;;;9.97;100.00
25560;BME280;13450;49.374;8.584;2023-04-19T05:30:34;101079.75;;;10.11;100.00
25560;BME280;13450;49.374;8.584;2023-04-19T05:33:00;101069.72;;;10.21;100.00
25560;BME280;13450;49.374;8.584;2023-04-19T05:35:25;101080.75;;;10.34;100.00
25560;BME280;13450;49.374;8.584;2023-04-19T05:37:53;101074.91;;;10.48;100.00
25560;BME280;13450;49.374;8.584;2023-04-19T05:40:18;101070.72;;;10.62;100.00
25560;BME280;13450;49.374;8.584;2023-04-19T05:42:43;101079.91;;;10.67;100.00
25560;BME280;13450;49.374;8.584;2023-04-19T05:45:09;101066.69;;;10.74;100.00
25560;BME280;13450;49.374;8.584;2023-04-19T05:47:35;101067.66;;;10.73;100.00
25560;BME280;13450;49.374;8.584;2023-04-19T05:50:00;101068.19;;;10.77;100.00
25560;BME280;13450;49.374;8.584;2023-04-19T05:52:25;101068.69;;;10.72;100.00
25560;BME280;13450;49.374;8.584;2023-04-19T05:54:51;101077.25;;;10.67;100.00
25560;BME280;13450;49.374;8.584;2023-04-19T05:57:16;101078.41;;;10.65;100.00
25560;BME280;13450;49.374;8.584;2023-04-19T05:59:41;101086.44;;;10.65;100.00
25560;BME280;13450;49.374;8.584;2023-04-19T06:02:07;101076.06;;;10.62;100.00
25560;BME280;13450;49.374;8.584;2023-04-19T06:04:34;101070.72;;;10.62;100.00
25560;BME280;13450;49.374;8.584;2023-04-19T06:07:00;101083.41;;;10.59;100.00
25560;BME280;13450;49.374;8.584;2023-04-19T06:09:25;101076.38;;;10.67;100.00
25560;BME280;13450;49.374;8.584;2023-04-19T06:11:50;101084.41;;;10.83;100.00
25560;BME280;13450;49.374;8.584;2023-04-19T06:14:18;101082.97;;;11.04;100.00
25560;BME280;13450;49.374;8.584;2023-04-19T06:16:44;101085.59;;;11.21;100.00
25560;BME280;13450;49.374;8.584;2023-04-19T06:19:09;101079.16;;;11.38;100.00
25560;BME280;13450;49.374;8.584;2023-04-19T06:21:34;101078.16;;;11.40;100.00
25560;BME280;13450;49.374;8.584;2023-04-19T06:24:00;101085.56;;;11.37;100.00
25560;BME280;13450;49.374;8.584;2023-04-19T06:26:25;101086.91;;;11.33;100.00
25560;BME280;13450;49.374;8.584;2023-04-19T06:28:51;101090.63;;;11.24;100.00
25560;BME280;13450;49.374;8.584;2023-04-19T06:31:16;101089.97;;;11.14;100.00
25560;BME280;13450;49.374;8.584;2023-04-19T06:33:41;101087.47;;;11.12;100.00
25560;BME280;13450;49.374;8.584;2023-04-19T06:36:07;101090.66;;;11.16;100.00
25560;BME280;13450;49.374;8.584;2023-04-19T06:38:32;101089.63;;;11.25;100.00
25560;BME280;13450;49.374;8.584;2023-04-19T06:40:58;101085.88;;;11.34;100.00
25560;BME280;13450;49.374;8.584;2023-04-19T06:43:23;101078.84;;;11.42;100.00
25560;BME280;13450;49.374;8.584;2023-04-19T06:45:48;101079.47;;;11.44;100.00
25560;BME280;13450;49.374;8.584;2023-04-19T06:48:13;101078.28;;;11.46;100.00
25560;BME280;13450;49.374;8.584;2023-04-19T06:50:40;101074.72;;;11.54;100.00
25560;BME280;13450;49.374;8.584;2023-04-19T06:53:05;101075.22;;;11.58;100.00
25560;BME280;13450;49.374;8.584;2023-04-19T06:55:30;101076.72;;;11.60;100.00
25560;BME280;13450;49.374;8.584;2023-04-19T06:57:56;101067.97;;;11.67;100.00
25560;BME280;13450;49.374;8.584;2023-04-19T07:00:21;101076.69;;;11.69;100.00
25560;BME280;13450;49.374;8.584;2023-04-19T07:02:50;101068.25;;;11.72;100.00
25560;BME280;13450;49.374;8.584;2023-04-19T07:05:16;101075.41;;;11.80;100.00
25560;BME280;13450;49.374;8.584;2023-04-19T07:07:43;101063.69;;;11.81;100.00
25560;BME280;13450;49.374;8.584;2023-04-19T07:10:09;101067.88;;;11.83;100.00
25560;BME280;13450;49.374;8.584;2023-04-19T07:12:35;101055.09;;;11.85;100.00
25560;BME280;13450;49.374;8.584;2023-04-19T07:15:00;101054.03;;;11.95;100.00
25560;BME280;13450;49.374;8.584;2023-04-19T07:17:26;101055.34;;;11.99;100.00
25560;BME280;13450;49.374;8.584;2023-04-19T07:19:51;101049.59;;;12.10;100.00
25560;BME280;13450;49.374;8.584;2023-04-19T07:22:19;101053.53;;;12.23;100.00
25560;BME280;13450;49.374;8.584;2023-04-19T07:24:46;101049.34;;;12.35;100.00
25560;BME280;13450;49.374;8.584;2023-04-19T07:27:11;101051.16;;;12.43;100.00
25560;BME280;13450;49.374;8.584;2023-04-19T07:29:38;101051.44;;;12.48;100.00
25560;BME280;13450;49.374;8.584;2023-04-19T07:32:05;101057.53;;;12.57;100.00
25560;BME280;13450;49.374;8.584;2023-04-19T07:34:30;101050.34;;;12.73;100.00
25560;BME280;13450;49.374;8.584;2023-04-19T07:36:55;101051.44;;;12.93;100.00
25560;BME280;13450;49.374;8.584;2023-04-19T07:39:21;101060.25;;;13.17;100.00
25560;BME280;13450;49.374;8.584;2023-04-19T07:41:46;101063.09;;;13.31;100.00
25560;BME280;13450;49.374;8.584;2023-04-19T07:44:11;101058.72;;;13.30;100.00
25560;BME280;13450;49.374;8.584;2023-04-19T07:46:37;101053.69;;;13.42;100.00
25560;BME280;13450;49.374;8.584;2023-04-19T07:49:03;101050.00;;;13.43;100.00
25560;BME280;13450;49.374;8.584;2023-04-19T07:51:28;101051.59;;;13.37;100.00
25560;BME280;13450;49.374;8.584;2023-04-19T07:53:53;101062.63;;;13.27;100.00
25560;BME280;13450;49.374;8.584;2023-04-19T07:56:21;101052.91;;;13.11;100.00
25560;BME280;13450;49.374;8.584;2023-04-19T07:58:46;101057.22;;;12.90;100.00
25560;BME280;13450;49.374;8.584;2023-04-19T08:01:11;101042.56;;;12.78;100.00
25560;BME280;13450;49.374;8.584;2023-04-19T08:03:37;101051.06;;;12.66;100.00
25560;BME280;13450;49.374;8.584;2023-04-19T08:06:04;101043.00;;;12.66;100.00
25560;BME280;13450;49.374;8.584;2023-04-19T08:08:30;101044.03;;;12.65;100.00
25560;BME280;13450;49.374;8.584;2023-04-19T08:10:55;101046.91;;;12.64;100.00
25560;BME280;13450;49.374;8.584;2023-04-19T08:13:21;101045.69;;;12.66;100.00
25560;BME280;13450;49.374;8.584;2023-04-19T08:15:47;101038.22;;;12.62;100.00
25560;BME280;13450;49.374;8.584;2023-04-19T08:18:12;101042.28;;;12.58;100.00
25560;BME280;13450;49.374;8.584;2023-04-19T08:20:37;101035.25;;;12.57;100.00
25560;BME280;13450;49.374;8.584;2023-04-19T08:23:06;101036.72;;;12.59;100.00
25560;BME280;13450;49.374;8.584;2023-04-19T08:25:33;101027.09;;;12.65;100.00
25560;BME280;13450;49.374;8.584;2023-04-19T08:27:58;101029.97;;;12.63;100.00
25560;BME280;13450;49.374;8.584;2023-04-19T08:30:23;101029.97;;;12.63;100.00
25560;BME280;13450;49.374;8.584;2023-04-19T08:32:48;101025.31;;;12.57;100.00
25560;BME280;13450;49.374;8.584;2023-04-19T08:35:15;101024.97;;;12.60;100.00
25560;BME280;13450;49.374;8.584;2023-04-19T08:37:40;101024.59;;;12.63;100.00
25560;BME280;13450;49.374;8.584;2023-04-19T08:40:07;101030.34;;;12.60;100.00
25560;BME280;13450;49.374;8.584;2023-04-19T08:42:33;101027.56;;;12.68;100.00
25560;BME280;13450;49.374;8.584;2023-04-19T08:45:03;101028.56;;;12.67;100.00
25560;BME280;13450;49.374;8.584;2023-04-19T08:47:32;101029.50;;;12.60;100.00
25560;BME280;13450;49.374;8.584;2023-04-19T08:50:03;101019.25;;;12.63;100.00
25560;BME280;13450;49.374;8.584;2023-04-19T08:52:32;101023.50;;;12.73;100.00
25560;BME280;13450;49.374;8.584;2023-04-19T08:55:00;101017.28;;;12.87;100.00
25560;BME280;13450;49.374;8.584;2023-04-19T08:57:30;101008.25;;;13.10;100.00
25560;BME280;13450;49.374;8.584;2023-04-19T08:59:55;101011.53;;;13.42;100.00
25560;BME280;13450;49.374;8.584;2023-04-19T09:02:22;101002.34;;;13.73;100.00
25560;BME280;13450;49.374;8.584;2023-04-19T09:04:48;101004.00;;;13.96;100.00
25560;BME280;13450;49.374;8.584;2023-04-19T09:07:26;101003.00;;;14.26;100.00
25560;BME280;13450;49.374;8.584;2023-04-19T09:10:20;100992.81;;;14.57;100.00
25560;BME280;13450;49.374;8.584;2023-04-19T09:13:03;101000.59;;;14.73;100.00
25560;BME280;13450;49.374;8.584;2023-04-19T09:15:39;100985.59;;;14.93;100.00
25560;BME280;13450;49.374;8.584;2023-04-19T09:18:07;100996.63;;;15.04;100.00
25560;BME280;13450;49.374;8.584;2023-04-19T09:20:45;100990.66;;;15.16;100.00
25560;BME280;13450;49.374;8.584;2023-04-19T09:23:13;100986.75;;;15.32;100.00
25560;BME280;13450;49.374;8.584;2023-04-19T09:25:39;100982.66;;;15.50;100.00
25560;BME280;13450;49.374;8.584;2023-04-19T09:28:11;100985.97;;;15.65;100.00
25560;BME280;13450;49.374;8.584;2023-04-19T09:30:38;100975.63;;;15.96;100.00
25560;BME280;13450;49.374;8.584;2023-04-19T09:33:03;100977.28;;;16.24;100.00
25560;BME280;13450;49.374;8.584;2023-04-19T09:35:49;100969.13;;;16.51;100.00
25560;BME280;13450;49.374;8.584;2023-04-19T09:38:15;100968.66;;;16.68;100.00
25560;BME280;13450;49.374;8.584;2023-04-19T09:40:41;100977.19;;;16.65;100.00
25560;BME280;13450;49.374;8.584;2023-04-19T09:43:06;100968.00;;;16.79;100.00
25560;BME280;13450;49.374;8.584;2023-04-19T09:45:40;100964.34;;;16.53;100.00
25560;BME280;13450;49.374;8.584;2023-04-19T09:48:06;100966.88;;;16.41;100.00
25560;BME280;13450;49.374;8.584;2023-04-19T09:50:32;100960.88;;;16.26;100.00
25560;BME280;13450;49.374;8.584;2023-04-19T09:52:58;100958.63;;;16.09;100.00
25560;BME280;13450;49.374;8.584;2023-04-19T09:55:25;100958.16;;;15.85;100.00
25560;BME280;13450;49.374;8.584;2023-04-19T09:57:51;100960.03;;;15.58;100.00
25560;BME280;13450;49.374;8.584;2023-04-19T10:00:17;100959.00;;;15.45;100.00
25560;BME280;13450;49.374;8.584;2023-04-19T10:02:43;100958.13;;;15.38;100.00
25560;BME280;13450;49.374;8.584;2023-04-19T10:05:12;100958.03;;;15.04;100.00
25560;BME280;13450;49.374;8.584;2023-04-19T10:07:40;100961.69;;;14.83;100.00
25560;BME280;13450;49.374;8.584;2023-04-19T10:10:06;100958.31;;;14.67;100.00
25560;BME280;13450;49.374;8.584;2023-04-19T10:12:34;100956.16;;;14.56;100.00
25560;BME280;13450;49.374;8.584;2023-04-19T10:14:59;100956.50;;;14.46;100.00
25560;BME280;13450;49.374;8.584;2023-04-19T10:17:25;100952.38;;;14.50;100.00
25560;BME280;13450;49.374;8.584;2023-04-19T10:19:58;100950.16;;;14.18;100.00
25560;BME280;13450;49.374;8.584;2023-04-19T10:22:26;100952.59;;;14.13;100.00
25560;BME280;13450;49.374;8.584;2023-04-19T10:25:13;100955.16;;;13.93;100.00
25560;BME280;13450;49.374;8.584;2023-04-19T10:27:40;100951.56;;;13.85;100.00
25560;BME280;13450;49.374;8.584;2023-04-19T10:30:30;100948.75;;;13.72;100.00
25560;BME280;13450;49.374;8.584;2023-04-19T10:32:57;100943.44;;;13.57;100.00
25560;BME280;13450;49.374;8.584;2023-04-19T10:38:11;100945.97;;;13.21;100.00
25560;BME280;13450;49.374;8.584;2023-04-19T10:43:15;100939.03;;;12.90;100.00
25560;BME280;13450;49.374;8.584;2023-04-19T10:45:42;100935.78;;;12.80;100.00
25560;BME280;13450;49.374;8.584;2023-04-19T10:51:10;100936.03;;;12.85;100.00
25560;BME280;13450;49.374;8.584;2023-04-19T10:53:51;100927.34;;;12.83;100.00
25560;BME280;13450;49.374;8.584;2023-04-19T10:56:55;100926.06;;;12.79;100.00
25560;BME280;13450;49.374;8.584;2023-04-19T10:59:11;100923.22;;;12.65;100.00
25560;BME280;13450;49.374;8.584;2023-04-19T11:04:17;100925.00;;;12.43;100.00
25560;BME280;13450;49.374;8.584;2023-04-19T11:09:52;100917.22;;;12.48;100.00
25560;BME280;13450;49.374;8.584;2023-04-19T11:12:19;100915.34;;;12.49;100.00
25560;BME280;13450;49.374;8.584;2023-04-19T11:17:24;100905.72;;;12.69;100.00
25560;BME280;13450;49.374;8.584;2023-04-19T11:22:17;100894.41;;;13.11;100.00
25560;BME280;13450;49.374;8.584;2023-04-19T11:24:46;100885.81;;;13.44;100.00
25560;BME280;13450;49.374;8.584;2023-04-19T11:27:12;100886.97;;;13.57;100.00
25560;BME280;13450;49.374;8.584;2023-04-19T11:29:37;100883.91;;;13.60;100.00
25560;BME280;13450;49.374;8.584;2023-04-19T11:32:03;100880.00;;;13.63;100.00
25560;BME280;13450;49.374;8.584;2023-04-19T11:34:28;100876.34;;;13.70;100.00
25560;BME280;13450;49.374;8.584;2023-04-19T11:36:54;100874.81;;;13.61;100.00
25560;BME280;13450;49.374;8.584;2023-04-19T11:39:19;100873.88;;;13.47;100.00
25560;BME280;13450;49.374;8.584;2023-04-19T11:41:46;100871.25;;;13.32;100.00
25560;BME280;13450;49.374;8.584;2023-04-19T11:44:18;100871.63;;;13.29;100.00
25560;BME280;13450;49.374;8.584;2023-04-19T11:47:01;100876.50;;;13.18;100.00
25560;BME280;13450;49.374;8.584;2023-04-19T11:49:31;100876.94;;;13.22;100.00
25560;BME280;13450;49.374;8.584;2023-04-19T11:51:58;100861.00;;;13.20;100.00
25560;BME280;13450;49.374;8.584;2023-04-19T11:54:24;100864.97;;;13.25;100.00
25560;BME280;13450;49.374;8.584;2023-04-19T11:59:30;100857.69;;;13.40;100.00
25560;BME280;13450;49.374;8.584;2023-04-19T12:02:03;100854.72;;;13.57;100.00
25560;BME280;13450;49.374;8.584;2023-04-19T12:04:29;100851.56;;;13.75;100.00
25560;BME280;13450;49.374;8.584;2023-04-19T12:06:58;100842.81;;;14.02;100.00
25560;BME280;13450;49.374;8.584;2023-04-19T12:09:24;100842.56;;;14.32;100.00
25560;BME280;13450;49.374;8.584;2023-04-19T12:11:49;100838.50;;;14.49;100.00
25560;BME280;13450;49.374;8.584;2023-04-19T12:14:16;100846.78;;;14.55;100.00
25560;BME280;13450;49.374;8.584;2023-04-19T12:16:44;100840.59;;;14.61;100.00
25560;BME280;13450;49.374;8.584;2023-04-19T12:19:18;100833.53;;;14.60;100.00
25560;BME280;13450;49.374;8.584;2023-04-19T12:21:46;100836.03;;;14.55;100.00
25560;BME280;13450;49.374;8.584;2023-04-19T12:24:14;100830.22;;;14.51;100.00
25560;BME280;13450;49.374;8.584;2023-04-19T12:26:56;100822.56;;;14.61;100.00
25560;BME280;13450;49.374;8.584;2023-04-19T12:29:23;100820.81;;;14.89;100.00
25560;BME280;13450;49.374;8.584;2023-04-19T12:31:51;100812.13;;;15.34;100.00
25560;BME280;13450;49.374;8.584;2023-04-19T12:34:16;100818.31;;;15.95;93.09
25560;BME280;13450;49.374;8.584;2023-04-19T12:36:44;100808.81;;;16.32;90.32
25560;BME280;13450;49.374;8.584;2023-04-19T12:39:09;100801.75;;;16.77;87.55
25560;BME280;13450;49.374;8.584;2023-04-19T12:41:34;100797.44;;;17.52;82.37
25560;BME280;13450;49.374;8.584;2023-04-19T12:44:02;100789.25;;;18.15;76.92
25560;BME280;13450;49.374;8.584;2023-04-19T12:46:27;100790.59;;;18.43;72.40
25560;BME280;13450;49.374;8.584;2023-04-19T12:48:53;100792.81;;;19.19;73.19
25560;BME280;13450;49.374;8.584;2023-04-19T12:51:20;100786.91;;;19.23;64.60
25560;BME280;13450;49.374;8.584;2023-04-19T12:53:47;100793.00;;;20.02;60.56
25560;BME280;13450;49.374;8.584;2023-04-19T12:56:13;100782.72;;;21.25;54.18
25560;BME280;13450;49.374;8.584;2023-04-19T12:58:40;100782.22;;;22.57;48.36
25560;BME280;13450;49.374;8.584;2023-04-19T13:01:05;100778.97;;;24.49;42.97
25560;BME280;13450;49.374;8.584;2023-04-19T13:03:31;100773.19;;;26.31;37.59
25560;BME280;13450;49.374;8.584;2023-04-19T13:06:00;100777.16;;;28.36;34.32
25560;BME280;13450;49.374;8.584;2023-04-19T13:08:28;100777.44;;;28.53;30.51